Time;durP1;ratioP1;P1;durP2;ratioP2;P2;SDS_P1;SDS_P2;PMS_P1;PMS_P2;Temp;Humidity;BMP_temperature;BMP_pressure;BME280_temperature;BME280_humidity;BME280_pressure;Samples;Min_cycle;Max_cycle;Signal;HPM_P1;HPM_P2
2021/12/24 07:54:29;;;;;;;;;14.33;11.67;;;;;10.55;72.23;100472.81;5051428;28;45639;-95
2021/12/24 07:56:55;;;;;;;;;13.00;11.00;;;;;10.59;72.32;100476.47;5048552;28;45512;-96
2021/12/24 07:59:21;;;;;;;;;11.33;10.00;;;;;10.57;72.27;100470.25;5055316;28;45687;-95
2021/12/24 08:01:47;;;;;;;;;9.00;8.33;;;;;10.61;72.52;100472.19;5060403;28;46101;-95
2021/12/24 08:04:13;;;;;;;;;12.67;11.00;;;;;10.58;72.75;100458.94;5063940;28;45364;-96
2021/12/24 08:06:39;;;;;;;;;10.33;5.33;;;;;10.61;72.86;100459.06;5054666;28;46009;-94
2021/12/24 08:09:08;;;;;;;;;6.67;6.67;;;;;10.63;72.94;100464.34;5066451;28;45537;-93
2021/12/24 08:11:35;;;;;;;;;8.33;6.33;;;;;10.62;72.70;100468.72;5063343;28;45521;-93
2021/12/24 08:14:05;;;;;;;;;10.00;10.00;;;;;10.64;72.99;100468.78;5061388;28;45408;-92
2021/12/24 08:16:31;;;;;;;;;9.00;9.00;;;;;10.65;72.90;100457.44;5052514;28;45586;-91
2021/12/24 08:18:56;;;;;;;;;6.67;6.67;;;;;10.67;72.92;100464.53;5052286;28;45463;-87
2021/12/24 08:21:22;;;;;;;;;11.67;8.67;;;;;10.65;72.82;100455.72;5049456;28;45619;-88
2021/12/24 08:23:48;;;;;;;;;8.33;8.33;;;;;10.63;72.83;100446.88;5061961;28;45722;-84
2021/12/24 08:26:15;;;;;;;;;9.00;9.00;;;;;10.67;72.93;100451.41;5061721;28;45425;-85
2021/12/24 08:28:41;;;;;;;;;8.00;8.00;;;;;10.67;73.15;100458.41;5060832;28;45582;-86
2021/12/24 08:31:07;;;;;;;;;10.67;9.67;;;;;10.66;73.09;100449.63;5077423;27;46473;-87
2021/12/24 08:33:35;;;;;;;;;9.67;9.00;;;;;10.65;73.06;100446.94;5082456;27;45571;-89
2021/12/24 08:36:03;;;;;;;;;10.00;8.33;;;;;10.69;72.89;100451.50;5087227;27;45649;-89
2021/12/24 08:38:28;;;;;;;;;8.33;8.00;;;;;10.68;72.71;100444.44;5078598;27;45433;-90
2021/12/24 08:40:53;;;;;;;;;8.33;8.33;;;;;10.75;73.05;100456.06;5083458;27;46371;-89
2021/12/24 08:43:19;;;;;;;;;9.33;9.33;;;;;10.80;72.95;100459.78;5081364;27;45820;-87
2021/12/24 08:45:44;;;;;;;;;12.00;11.00;;;;;10.82;72.86;100442.38;5077619;27;45432;-89
2021/12/24 08:48:09;;;;;;;;;9.00;9.00;;;;;10.89;73.07;100444.41;5069822;27;50694;-88
2021/12/24 08:50:35;;;;;;;;;13.00;10.00;;;;;10.93;72.79;100448.03;5082415;27;48221;-89
2021/12/24 08:53:00;;;;;;;;;12.67;9.67;;;;;10.98;72.53;100445.59;5099615;27;45525;-89
2021/12/24 08:55:26;;;;;;;;;11.33;8.33;;;;;11.03;72.49;100444.94;5086178;27;45464;-89
2021/12/24 08:57:51;;;;;;;;;10.00;8.67;;;;;11.06;72.62;100450.31;5085573;27;45507;-91
2021/12/24 09:00:19;;;;;;;;;10.33;7.33;;;;;11.11;72.67;100439.97;5085955;27;47161;-90
2021/12/24 09:02:44;;;;;;;;;8.00;8.00;;;;;11.14;72.59;100441.81;5070532;28;45595;-89
2021/12/24 09:05:11;;;;;;;;;10.33;10.00;;;;;11.17;72.37;100432.34;5062536;28;45455;-90
2021/12/24 09:07:36;;;;;;;;;10.00;9.00;;;;;11.20;72.52;100436.81;5062895;28;45580;-90
2021/12/24 09:10:04;;;;;;;;;9.33;9.33;;;;;11.27;72.26;100446.72;5081214;27;48080;-92
2021/12/24 09:12:29;;;;;;;;;9.67;8.67;;;;;11.25;72.47;100440.50;5085968;27;45466;-92
2021/12/24 09:14:54;;;;;;;;;13.00;10.33;;;;;11.34;72.31;100450.44;5073984;28;45570;-91
2021/12/24 09:17:21;;;;;;;;;11.00;9.67;;;;;11.37;72.25;100447.94;5076432;27;45541;-90
2021/12/24 09:19:50;;;;;;;;;11.00;10.00;;;;;11.44;72.33;100443.78;5068134;27;48515;-90
2021/12/24 09:22:21;;;;;;;;;11.00;10.33;;;;;11.51;72.24;100447.56;5064530;27;46463;-90
2021/12/24 09:24:50;;;;;;;;;9.67;9.33;;;;;11.55;72.21;100449.47;5057993;27;45603;-90
2021/12/24 09:27:16;;;;;;;;;9.67;7.33;;;;;11.61;72.35;100449.69;5072062;27;45580;-89
2021/12/24 09:29:42;;;;;;;;;10.00;10.00;;;;;11.65;71.80;100455.94;5072619;27;47208;-88
2021/12/24 09:32:08;;;;;;;;;9.00;9.00;;;;;11.68;71.67;100456.06;5085914;27;46670;-89
2021/12/24 09:34:34;;;;;;;;;11.00;8.33;;;;;11.64;71.45;100456.78;5081090;27;45499;-88
2021/12/24 09:36:59;;;;;;;;;10.67;9.00;;;;;11.63;71.74;100465.50;5086606;27;47415;-90
2021/12/24 09:39:24;;;;;;;;;10.33;10.00;;;;;11.60;71.59;100454.88;5075689;27;48502;-88
2021/12/24 09:41:50;;;;;;;;;7.33;7.33;;;;;11.60;71.60;100444.34;5094684;27;45741;-89
2021/12/24 09:44:15;;;;;;;;;11.33;8.67;;;;;11.66;71.60;100436.72;5069063;27;45566;-90
2021/12/24 09:46:42;;;;;;;;;11.67;10.33;;;;;11.74;71.71;100437.00;5079415;27;45521;-90
2021/12/24 09:49:10;;;;;;;;;10.00;8.67;;;;;11.82;71.91;100424.09;5074972;27;48310;-90
2021/12/24 09:51:38;;;;;;;;;8.67;7.67;;;;;11.94;71.32;100435.06;5081517;27;45466;-91
2021/12/24 09:54:11;;;;;;;;;7.00;7.00;;;;;11.99;70.76;100431.66;5073313;27;46678;-90
2021/12/24 09:56:36;;;;;;;;;13.33;10.67;;;;;11.94;70.98;100427.16;5083100;27;45437;-90
2021/12/24 09:59:02;;;;;;;;;8.00;8.00;;;;;11.91;70.94;100426.16;5074657;27;45531;-90
2021/12/24 10:01:33;;;;;;;;;9.00;7.67;;;;;12.03;71.35;100434.50;5081190;27;45751;-90
2021/12/24 10:04:11;;;;;;;;;7.33;7.33;;;;;12.23;71.62;100442.19;5076649;27;45466;-91
2021/12/24 10:06:37;;;;;;;;;11.00;9.00;;;;;12.33;70.80;100438.13;5059595;28;45387;-90
2021/12/24 10:09:16;;;;;;;;;15.00;12.33;;;;;12.34;70.53;100437.28;5086137;27;47971;-91
2021/12/24 10:11:49;;;;;;;;;10.00;10.00;;;;;12.25;70.48;100429.97;5068948;27;45433;-91
2021/12/24 10:14:16;;;;;;;;;11.67;10.33;;;;;12.24;70.47;100437.81;5067130;27;45397;-91
2021/12/24 10:16:48;;;;;;;;;11.00;10.00;;;;;12.16;70.25;100430.53;5075108;27;45546;-91
2021/12/24 10:19:14;;;;;;;;;11.00;10.67;;;;;12.11;70.34;100432.09;5068026;27;46653;-91
2021/12/24 10:21:41;;;;;;;;;10.67;10.67;;;;;12.07;70.80;100433.75;5067379;27;45548;-91
2021/12/24 10:24:20;;;;;;;;;13.00;12.00;;;;;12.02;70.74;100418.63;5057106;27;45450;-92
2021/12/24 10:26:51;;;;;;;;;13.33;11.33;;;;;12.01;70.63;100415.09;5058963;28;45411;-90
2021/12/24 10:29:18;;;;;;;;;10.33;8.67;;;;;11.98;70.68;100401.88;5069123;28;47180;-91
2021/12/24 10:31:49;;;;;;;;;11.00;11.00;;;;;11.96;71.00;100391.28;5086213;27;45892;-91
2021/12/24 10:34:21;;;;;;;;;10.00;9.33;;;;;12.13;71.14;100401.53;5085859;27;45332;-91
2021/12/24 10:36:49;;;;;;;;;10.67;9.33;;;;;12.28;71.19;100397.59;5081767;27;45604;-92
2021/12/24 10:39:19;;;;;;;;;13.00;12.33;;;;;12.30;70.31;100385.38;5075038;27;47078;-94
2021/12/24 10:41:49;;;;;;;;;11.67;11.00;;;;;12.42;70.85;100389.25;5086233;27;45562;-92
2021/12/24 10:44:19;;;;;;;;;15.00;11.00;;;;;12.53;70.00;100390.47;5087845;27;45434;-94
2021/12/24 10:47:06;;;;;;;;;10.33;9.00;;;;;12.61;70.45;100386.34;5079290;27;45521;-93
2021/12/24 10:54:50;;;;;;;;;15.33;13.00;;;;;12.93;69.87;100380.31;5071496;27;45533;-93
2021/12/24 10:57:17;;;;;;;;;14.00;11.00;;;;;13.00;69.93;100384.00;5068563;27;45559;-92
2021/12/24 10:59:44;;;;;;;;;10.33;9.00;;;;;13.07;69.42;100390.31;5072082;28;47465;-94
2021/12/24 11:02:11;;;;;;;;;12.33;10.67;;;;;13.06;69.17;100389.47;5070744;28;45394;-94
2021/12/24 11:04:37;;;;;;;;;11.33;10.67;;;;;13.04;69.03;100385.00;5073646;28;45287;-91
2021/12/24 11:07:28;;;;;;;;;13.00;11.00;;;;;13.00;69.33;100370.81;5080077;27;45494;-93
2021/12/24 11:10:09;;;;;;;;;12.33;12.00;;;;;13.06;69.80;100357.84;5054027;28;48168;-92
2021/12/24 11:12:36;;;;;;;;;13.00;12.00;;;;;13.04;69.36;100354.25;5060880;28;45389;-93
2021/12/24 11:15:02;;;;;;;;;12.33;10.33;;;;;13.05;69.38;100342.88;5056701;27;45553;-93
2021/12/24 11:17:38;;;;;;;;;13.67;11.67;;;;;13.15;69.40;100345.75;5069965;28;45533;-94
2021/12/24 11:20:09;;;;;;;;;12.33;12.33;;;;;13.20;69.00;100338.88;5072498;28;47240;-94
2021/12/24 11:22:59;;;;;;;;;12.67;12.00;;;;;13.17;68.52;100325.59;5074255;27;45566;-94
2021/12/24 11:25:27;;;;;;;;;18.00;12.00;;;;;13.12;68.98;100319.31;5075336;28;45272;-93
2021/12/24 11:27:54;;;;;;;;;13.00;10.67;;;;;13.10;68.99;100321.00;5068537;28;45466;-93
2021/12/24 11:30:21;;;;;;;;;10.33;9.67;;;;;13.13;69.07;100318.47;5063600;27;47194;-91
2021/12/24 11:32:47;;;;;;;;;11.33;10.67;;;;;13.15;69.01;100322.03;5064295;27;45404;-91
2021/12/24 11:35:14;;;;;;;;;17.00;14.67;;;;;13.11;69.04;100323.72;5066855;28;45788;-91
2021/12/24 11:37:44;;;;;;;;;13.00;8.67;;;;;13.10;68.87;100329.81;5070887;28;45558;-93
2021/12/24 11:40:11;;;;;;;;;14.00;13.00;;;;;13.02;68.78;100329.59;5106725;27;48163;-92
2021/12/24 11:42:39;;;;;;;;;11.67;10.33;;;;;12.95;68.45;100332.91;5074407;27;45454;-92
2021/12/24 11:45:06;;;;;;;;;11.67;11.67;;;;;12.87;69.16;100324.78;5089274;27;45505;-92
2021/12/24 11:47:33;;;;;;;;;13.00;10.67;;;;;12.92;68.73;100328.44;5074410;28;45387;-95
2021/12/24 11:49:59;;;;;;;;;12.33;12.33;;;;;12.93;68.72;100331.97;5070228;28;47113;-91
2021/12/24 11:52:26;;;;;;;;;12.33;12.33;;;;;12.93;68.80;100335.50;5065159;28;45810;-92
2021/12/24 11:54:55;;;;;;;;;15.67;15.67;;;;;12.93;69.40;100330.25;5062296;28;45438;-91
2021/12/24 11:57:21;;;;;;;;;13.33;11.67;;;;;12.92;69.24;100325.81;5072324;28;45597;-92
2021/12/24 11:59:50;;;;;;;;;13.33;11.67;;;;;12.92;68.61;100327.53;5107220;27;47485;-91
2021/12/24 12:02:52;;;;;;;;;15.00;13.33;;;;;12.92;68.99;100336.34;5071438;28;45477;-91
2021/12/24 12:05:36;;;;;;;;;12.00;12.00;;;;;12.86;69.09;100338.78;5081477;27;45415;-91
2021/12/24 12:08:29;;;;;;;;;10.67;10.67;;;;;12.82;68.97;100334.28;5070782;28;45465;-90
2021/12/24 12:10:56;;;;;;;;;13.67;12.67;;;;;12.78;69.06;100341.19;5070025;28;45686;-91
2021/12/24 12:13:40;;;;;;;;;15.00;12.00;;;;;12.70;69.15;100333.09;5071418;28;45456;-89
2021/12/24 12:16:08;;;;;;;;;12.33;12.00;;;;;12.66;69.02;100330.31;5080955;27;45366;-89
2021/12/24 12:18:44;;;;;;;;;12.00;11.33;;;;;12.60;69.33;100328.41;5062063;27;45434;-90
2021/12/24 12:21:21;;;;;;;;;13.00;11.33;;;;;12.60;69.67;100320.50;5065820;27;46146;-91
2021/12/24 12:26:41;;;;;;;;;17.33;14.00;;;;;12.69;69.21;100320.75;5077346;27;45422;-96
2021/12/24 12:29:45;;;;;;;;;16.00;13.67;;;;;12.77;68.97;100320.09;5063767;28;45611;-96
2021/12/24 12:32:16;;;;;;;;;13.67;13.33;;;;;12.81;69.23;100320.22;5032272;28;47734;-96
2021/12/24 12:34:45;;;;;;;;;13.00;12.67;;;;;12.92;68.67;100332.81;5028617;28;45397;-96
2021/12/24 12:37:22;;;;;;;;;15.33;13.00;;;;;13.00;68.85;100326.03;5017307;28;45531;-96
2021/12/24 12:39:51;;;;;;;;;14.67;12.33;;;;;13.08;68.93;100310.44;5031409;28;45603;-96
2021/12/24 12:42:18;;;;;;;;;14.00;12.33;;;;;13.12;68.86;100291.22;5022812;28;45550;-93
2021/12/24 12:44:50;;;;;;;;;13.00;13.00;;;;;13.29;68.71;100293.44;5003789;28;45672;-92
2021/12/24 12:47:28;;;;;;;;;12.33;11.33;;;;;13.39;68.68;100284.03;5046567;28;45596;-95
2021/12/24 12:50:17;;;;;;;;;13.67;12.00;;;;;13.49;68.19;100290.44;5017301;28;45888;-93
2021/12/24 12:52:43;;;;;;;;;13.67;11.33;;;;;13.52;68.44;100282.59;5024810;28;46395;-95
2021/12/24 12:55:26;;;;;;;;;14.67;13.67;;;;;13.63;67.46;100304.03;5016027;28;45604;-95
2021/12/24 12:57:52;;;;;;;;;14.33;14.33;;;;;13.61;67.13;100295.16;5026021;28;45406;-94
2021/12/24 13:00:21;;;;;;;;;13.00;11.33;;;;;13.54;67.44;100270.34;5021455;28;45282;-89
2021/12/24 13:02:56;;;;;;;;;16.67;13.00;;;;;13.55;67.55;100279.16;5072705;27;45579;-92
2021/12/24 13:05:23;;;;;;;;;13.00;11.00;;;;;13.47;66.43;100281.59;5074070;27;45936;-94
2021/12/24 13:07:48;;;;;;;;;13.00;11.67;;;;;13.31;67.19;100270.66;5069205;28;45567;-94
2021/12/24 13:10:18;;;;;;;;;13.67;12.00;;;;;13.28;67.31;100260.91;5064442;27;45750;-94
2021/12/24 13:12:44;;;;;;;;;14.33;10.33;;;;;13.41;67.98;100274.41;5068990;27;45573;-94
2021/12/24 13:15:16;;;;;;;;;14.00;12.00;;;;;13.43;67.22;100272.69;5073645;27;45335;-94
2021/12/24 13:17:45;;;;;;;;;14.00;12.67;;;;;13.46;67.27;100272.78;5070915;27;45382;-94
2021/12/24 13:20:17;;;;;;;;;13.00;11.33;;;;;13.45;67.29;100272.75;5067350;27;45513;-94
2021/12/24 13:22:42;;;;;;;;;16.67;13.00;;;;;13.42;66.69;100270.94;5062065;27;46959;-94
2021/12/24 13:25:13;;;;;;;;;11.00;10.33;;;;;13.36;66.93;100271.66;5072910;27;45445;-95
2021/12/24 13:27:44;;;;;;;;;14.00;12.00;;;;;13.34;67.11;100265.47;5073037;27;45460;-95
2021/12/24 13:30:20;;;;;;;;;14.00;13.00;;;;;13.29;67.07;100272.34;5065922;27;45431;-94
2021/12/24 13:32:59;;;;;;;;;11.00;11.00;;;;;13.18;66.65;100254.50;5075130;27;46523;-95
2021/12/24 13:35:28;;;;;;;;;14.33;14.33;;;;;13.05;67.05;100240.13;5095693;27;46421;-95
2021/12/24 13:37:55;;;;;;;;;15.00;12.67;;;;;13.03;67.45;100246.19;5075115;28;45375;-94
2021/12/24 13:40:27;;;;;;;;;13.00;12.00;;;;;13.01;67.77;100243.53;5071883;28;45536;-96
2021/12/24 13:42:58;;;;;;;;;18.67;15.67;;;;;12.99;68.07;100250.47;5072591;27;45458;-95
2021/12/24 13:45:25;;;;;;;;;18.00;16.67;;;;;12.93;67.81;100242.41;5079728;27;45705;-95
2021/12/24 13:48:06;;;;;;;;;17.00;14.00;;;;;12.96;68.03;100242.50;5087313;27;45479;-95
2021/12/24 13:56:22;;;;;;;;;17.33;13.00;;;;;12.87;68.19;100247.50;5047427;28;45677;-94
2021/12/24 13:58:54;;;;;;;;;18.33;16.00;;;;;12.85;68.08;100255.38;5048849;28;45416;-95
2021/12/24 14:01:27;;;;;;;;;11.67;10.33;;;;;12.80;68.37;100239.44;5036205;28;45313;-94
2021/12/24 14:03:54;;;;;;;;;20.67;14.33;;;;;12.82;68.29;100236.84;5017661;28;47073;-95
2021/12/24 14:06:21;;;;;;;;;13.00;13.00;;;;;12.80;68.50;100222.75;5038410;28;45317;-94
2021/12/24 14:08:46;;;;;;;;;18.67;13.67;;;;;12.80;68.76;100206.94;5058462;28;45738;-95
2021/12/24 14:11:20;;;;;;;;;15.00;14.00;;;;;12.90;68.13;100226.53;5054467;28;45312;-94
2021/12/24 14:13:55;;;;;;;;;17.33;11.67;;;;;12.91;68.19;100223.91;5052515;28;47298;-95
2021/12/24 14:18:56;;;;;;;;;18.67;14.33;;;;;12.83;67.74;100207.03;5051910;28;45412;-90
2021/12/24 14:24:06;;;;;;;;;19.67;17.33;;;;;12.82;67.83;100210.50;5055907;28;46049;-90
2021/12/24 14:26:33;;;;;;;;;17.33;14.00;;;;;12.74;68.24;100211.19;5054669;28;45828;-90
2021/12/24 14:29:05;;;;;;;;;17.00;17.00;;;;;12.69;67.87;100204.91;5058029;28;45590;-91
2021/12/24 14:31:30;;;;;;;;;16.00;12.00;;;;;12.64;68.06;100217.03;5077745;27;45398;-90
2021/12/24 14:33:55;;;;;;;;;20.00;15.00;;;;;12.57;68.13;100210.72;5072127;27;47107;-93
2021/12/24 14:36:22;;;;;;;;;15.00;14.00;;;;;12.48;68.24;100197.28;5106402;27;45318;-91
2021/12/24 14:38:47;;;;;;;;;11.67;11.00;;;;;12.56;68.18;100213.28;5076225;28;45339;-95
2021/12/24 14:41:20;;;;;;;;;17.00;13.00;;;;;12.52;68.35;100207.94;5090516;27;45261;-96
2021/12/24 14:43:46;;;;;;;;;15.00;14.00;;;;;12.54;68.24;100208.00;5058124;28;46280;-96
2021/12/24 14:46:12;;;;;;;;;13.00;12.33;;;;;12.52;68.27;100201.81;5078675;28;45606;-96
2021/12/24 14:48:37;;;;;;;;;11.33;7.33;;;;;12.46;68.15;100186.72;5087282;28;45383;-96
2021/12/24 14:51:08;;;;;;;;;15.00;12.00;;;;;12.50;68.36;100198.22;5085221;28;45276;-96
2021/12/24 14:53:45;;;;;;;;;12.67;10.67;;;;;12.47;68.43;100199.00;5083551;28;47150;-96
2021/12/24 15:06:53;;;;;;;;;11.00;11.00;;;;;12.24;68.62;100167.66;6026532;22;45924;-96
2021/12/24 15:14:50;;;;;;;;;16.00;13.67;;;;;12.11;69.11;100183.91;5298116;22;45144;-96
2021/12/24 15:17:17;;;;;;;;;17.33;15.33;;;;;12.26;69.03;100205.47;5659367;22;45934;-96
2021/12/24 15:19:42;;;;;;;;;15.67;13.67;;;;;12.06;69.04;100165.38;5016945;28;45952;-96
2021/12/24 15:22:08;;;;;;;;;20.67;17.67;;;;;12.23;68.90;100188.69;5014197;28;45266;-96
2021/12/24 15:24:33;;;;;;;;;21.00;19.00;;;;;12.09;68.87;100168.06;4995504;28;47292;-96
2021/12/24 15:27:06;;;;;;;;;20.33;17.67;;;;;12.02;68.76;100167.00;4999269;28;45494;-94
2021/12/24 15:29:31;;;;;;;;;19.00;15.33;;;;;11.96;68.97;100158.91;5009620;28;45342;-96
2021/12/24 15:31:59;;;;;;;;;21.00;16.00;;;;;12.05;69.05;100190.78;5324986;22;45875;-96
2021/12/24 15:34:25;;;;;;;;;16.00;15.00;;;;;11.91;68.97;100164.03;5003761;28;45583;-96
2021/12/24 15:36:50;;;;;;;;;15.67;13.67;;;;;12.09;68.94;100207.53;5062783;22;46781;-94
2021/12/24 15:39:15;;;;;;;;;16.00;14.00;;;;;12.04;68.77;100215.28;5000108;28;45432;-96
2021/12/24 15:41:46;;;;;;;;;23.00;19.67;;;;;12.02;68.91;100218.72;5019207;28;45528;-96
2021/12/24 15:44:13;;;;;;;;;17.67;15.67;;;;;11.98;69.19;100208.97;5021213;28;45661;-96
2021/12/24 15:46:39;;;;;;;;;18.33;15.33;;;;;12.01;69.31;100219.59;5000323;28;45353;-95
2021/12/24 15:49:04;;;;;;;;;17.33;16.00;;;;;11.96;69.33;100211.53;5005128;28;44889;-95
2021/12/24 15:51:29;;;;;;;;;20.00;16.67;;;;;11.96;69.46;100203.63;5016692;28;45602;-93
2021/12/24 15:53:55;;;;;;;;;16.33;16.33;;;;;11.96;69.22;100204.53;5014752;28;59336;-95
2021/12/24 15:56:20;;;;;;;;;20.00;14.67;;;;;11.96;69.30;100207.16;5005258;28;44935;-95
2021/12/24 15:58:47;;;;;;;;;23.67;18.67;;;;;11.94;69.52;100206.22;5323308;22;44945;-96
2021/12/24 16:01:12;;;;;;;;;24.00;18.00;;;;;11.94;69.57;100206.22;5073799;23;45304;-96
2021/12/24 16:03:39;;;;;;;;;20.33;18.67;;;;;11.73;69.48;100172.25;5079635;23;46109;-94
2021/12/24 16:06:05;;;;;;;;;20.67;16.67;;;;;11.88;69.64;100194.63;5367080;23;45838;-95
2021/12/24 16:08:31;;;;;;;;;24.00;19.33;;;;;11.88;69.78;100182.34;5214458;22;45239;-96
2021/12/24 16:10:56;;;;;;;;;27.00;21.00;;;;;11.76;69.77;100161.84;5008555;28;44966;-96
2021/12/24 16:13:22;;;;;;;;;28.67;21.33;;;;;11.76;69.67;100174.97;5024968;23;47039;-96
2021/12/24 16:15:50;;;;;;;;;23.67;21.33;;;;;11.98;69.84;100198.44;5001753;28;45471;-95
2021/12/24 16:18:16;;;;;;;;;22.00;20.00;;;;;11.99;69.71;100200.19;5000658;28;45478;-95
2021/12/24 16:20:42;;;;;;;;;27.33;23.67;;;;;11.98;69.77;100201.06;5013257;28;46058;-94
2021/12/24 16:23:09;;;;;;;;;33.33;26.67;;;;;12.01;69.74;100209.94;4997917;28;47294;-96
2021/12/24 16:25:35;;;;;;;;;22.67;20.67;;;;;11.96;69.45;100208.88;5009188;28;46502;-93
2021/12/24 16:28:06;;;;;;;;;17.00;17.00;;;;;11.87;69.75;100191.09;4997763;28;45339;-94
2021/12/24 16:30:32;;;;;;;;;21.33;18.00;;;;;11.88;69.63;100197.25;5004851;28;45630;-96
2021/12/24 16:32:57;;;;;;;;;28.00;20.33;;;;;11.87;69.83;100195.47;5014862;28;45698;-94
2021/12/24 16:35:23;;;;;;;;;18.00;16.67;;;;;11.83;69.83;100192.72;4986816;28;45334;-94
2021/12/24 16:37:49;;;;;;;;;21.67;18.67;;;;;11.82;69.82;100201.50;4987141;28;46448;-94
2021/12/24 16:40:19;;;;;;;;;17.33;16.67;;;;;11.80;70.01;100190.00;5009583;28;45568;-96
2021/12/24 16:42:48;;;;;;;;;18.67;14.67;;;;;11.65;70.00;100171.16;5058429;22;46128;-94
2021/12/24 16:45:14;;;;;;;;;18.33;17.33;;;;;11.65;70.17;100164.13;4995536;28;45495;-96
2021/12/24 16:47:40;;;;;;;;;15.33;14.00;;;;;11.57;70.26;100150.75;5001345;28;45350;-95
2021/12/24 16:50:05;;;;;;;;;25.00;16.67;;;;;11.54;70.31;100145.41;5002675;28;45595;-94
2021/12/24 16:52:31;;;;;;;;;20.00;20.00;;;;;11.61;70.22;100154.38;5011361;28;46347;-96
2021/12/24 16:54:56;;;;;;;;;21.00;18.33;;;;;11.56;70.41;100138.47;5012044;28;45485;-96
2021/12/24 16:57:22;;;;;;;;;25.00;22.00;;;;;11.69;70.30;100160.78;4988704;28;45773;-96
2021/12/24 16:59:47;;;;;;;;;19.00;18.00;;;;;11.58;70.41;100139.41;4989749;28;45403;-96
2021/12/24 17:02:15;;;;;;;;;25.33;21.00;;;;;11.68;70.22;100148.44;4990548;28;45486;-96
2021/12/24 17:04:41;;;;;;;;;20.33;17.33;;;;;11.62;70.52;100132.50;4976520;28;45381;-96
2021/12/24 17:07:10;;;;;;;;;25.33;22.00;;;;;11.67;70.11;100135.28;4981857;28;45374;-96
2021/12/24 17:09:36;;;;;;;;;33.33;25.00;;;;;11.65;70.19;100132.56;4984904;28;45388;-96
2021/12/24 17:12:03;;;;;;;;;29.67;23.33;;;;;11.67;70.18;100145.78;4966781;28;47103;-93
2021/12/24 17:14:29;;;;;;;;;28.25;23.75;;;;;11.60;70.28;100137.69;4977136;28;45634;-96
2021/12/24 17:16:56;;;;;;;;;36.25;29.25;;;;;11.51;70.87;100125.19;5220084;22;46567;-91
2021/12/24 17:24:31;;;;;;;;;30.00;26.50;;;;;11.75;70.38;100161.81;4956783;28;45925;-96
2021/12/24 17:26:59;;;;;;;;;33.00;31.50;;;;;11.73;70.33;100161.75;4949935;28;44922;-96
2021/12/24 17:29:26;;;;;;;;;28.00;25.00;;;;;11.74;70.60;100166.16;4968925;28;45550;-96
2021/12/24 17:31:54;;;;;;;;;26.33;22.00;;;;;11.73;70.55;100151.22;4952289;28;46926;-96
2021/12/24 17:34:23;;;;;;;;;34.00;26.33;;;;;11.77;70.59;100150.50;4948189;28;45268;-96
2021/12/24 17:36:49;;;;;;;;;32.67;27.33;;;;;11.75;70.26;100146.91;4959042;28;45594;-96
2021/12/24 17:39:16;;;;;;;;;36.67;31.67;;;;;11.71;70.55;100139.78;4940334;28;45599;-96
2021/12/24 17:41:44;;;;;;;;;39.00;32.00;;;;;11.76;70.71;100134.66;4961710;28;46414;-96
2021/12/24 17:44:10;;;;;;;;;30.00;28.50;;;;;11.71;70.46;100135.41;4946788;28;45830;-96
2021/12/24 17:46:35;;;;;;;;;35.50;31.00;;;;;11.77;70.51;100141.69;4945261;28;45465;-95
2021/12/24 17:49:01;;;;;;;;;33.25;29.50;;;;;11.70;70.68;100130.97;4947849;28;45387;-91
2021/12/24 17:51:26;;;;;;;;;38.50;34.00;;;;;11.79;70.41;100148.78;4946437;28;48602;-92
2021/12/24 17:53:52;;;;;;;;;37.33;29.33;;;;;11.77;70.80;100142.59;4958250;28;46376;-95
2021/12/24 17:56:17;;;;;;;;;32.33;25.00;;;;;11.82;70.53;100150.63;4929069;28;45508;-96
2021/12/24 17:58:42;;;;;;;;;29.67;26.00;;;;;11.76;70.54;100137.28;4961023;28;45505;-95
2021/12/24 18:01:08;;;;;;;;;31.00;28.00;;;;;11.76;70.40;100146.06;4945510;28;46966;-96
2021/12/24 18:03:33;;;;;;;;;34.00;29.00;;;;;11.76;70.72;100143.44;4941661;28;45817;-93
2021/12/24 18:06:00;;;;;;;;;32.67;27.67;;;;;11.77;70.67;100141.69;4952760;28;45514;-91
2021/12/24 18:08:26;;;;;;;;;36.25;33.75;;;;;11.80;70.21;100150.56;4941904;28;45787;-90
2021/12/24 18:10:51;;;;;;;;;46.50;36.75;;;;;11.74;70.65;100134.63;4931819;28;48179;-92
2021/12/24 18:13:21;;;;;;;;;44.00;35.50;;;;;11.82;70.73;100146.28;4941172;28;47160;-96
2021/12/24 18:15:47;;;;;;;;;34.33;28.67;;;;;11.80;70.56;100137.41;4943810;28;45360;-92
2021/12/24 18:18:12;;;;;;;;;30.75;29.75;;;;;11.79;70.57;100133.03;4937267;28;45338;-96
2021/12/24 18:20:38;;;;;;;;;34.00;27.33;;;;;11.72;71.28;100124.06;4938155;28;47201;-88
2021/12/24 18:23:03;;;;;;;;;32.00;30.00;;;;;11.74;72.99;100137.25;4950818;28;45463;-89
2021/12/24 18:25:28;;;;;;;;;34.33;28.00;;;;;11.73;72.72;100136.34;4950792;28;45473;-89
2021/12/24 18:27:54;;;;;;;;;39.25;33.00;;;;;11.69;73.04;100128.31;4934272;28;45500;-90
2021/12/24 18:30:20;;;;;;;;;50.00;37.00;;;;;11.65;73.57;100126.47;4934656;28;47297;-89
2021/12/24 18:32:50;;;;;;;;;41.75;34.75;;;;;11.63;73.91;100144.78;4952803;28;45492;-88
2021/12/24 18:35:15;;;;;;;;;52.00;40.25;;;;;11.56;74.57;100134.94;4954951;28;45762;-94
2021/12/24 18:38:06;;;;;;;;;51.00;41.25;;;;;11.49;75.44;100131.22;4951526;28;45506;-91
2021/12/24 18:40:27;;;;;;;;;47.75;37.25;;;;;11.45;75.28;100119.72;4949534;28;47190;-94
2021/12/24 18:42:52;;;;;;;;;49.00;40.25;;;;;11.40;75.41;100116.94;4951660;28;45802;-95
2021/12/24 18:45:19;;;;;;;;;54.25;41.50;;;;;11.34;75.49;100100.97;4952621;28;46016;-91
2021/12/24 18:47:45;;;;;;;;;57.50;46.00;;;;;11.37;75.98;100098.44;4954366;28;45530;-95
2021/12/24 18:50:10;;;;;;;;;50.75;41.75;;;;;11.29;75.83;100069.31;4938606;28;48452;-95
2021/12/24 18:52:35;;;;;;;;;49.00;40.00;;;;;11.29;75.83;100082.44;4939665;28;45355;-96
2021/12/24 18:55:01;;;;;;;;;53.00;44.00;;;;;11.27;76.33;100075.34;4935171;28;45340;-95
2021/12/24 18:57:26;;;;;;;;;47.75;39.50;;;;;11.33;76.07;100072.03;4935841;28;45546;-90
2021/12/24 18:59:52;;;;;;;;;51.00;40.00;;;;;11.26;76.23;100060.44;4933417;28;47237;-91
2021/12/24 19:02:17;;;;;;;;;50.75;36.75;;;;;11.23;76.21;100062.97;4953867;28;45445;-92
2021/12/24 19:04:43;;;;;;;;;52.00;43.00;;;;;11.22;76.04;100075.22;4935998;28;45749;-95
2021/12/24 19:07:09;;;;;;;;;48.75;40.00;;;;;11.17;76.03;100080.31;4948799;28;45609;-91
2021/12/24 19:09:34;;;;;;;;;52.75;41.00;;;;;11.16;76.28;100083.78;4939124;28;47582;-93
2021/12/24 19:12:00;;;;;;;;;56.75;42.50;;;;;11.21;76.47;100093.56;4935313;28;45530;-91
2021/12/24 19:14:25;;;;;;;;;58.75;45.50;;;;;11.22;76.32;100100.59;4949529;28;45511;-93
2021/12/24 19:16:50;;;;;;;;;54.00;43.50;;;;;11.26;76.47;100105.97;4954339;28;45548;-91
2021/12/24 19:19:17;;;;;;;;;50.00;43.00;;;;;11.26;76.28;100110.38;4935899;28;48009;-91
2021/12/24 19:21:42;;;;;;;;;54.75;43.50;;;;;11.25;76.49;100109.47;4929562;28;45525;-90
2021/12/24 19:24:08;;;;;;;;;54.75;40.50;;;;;11.26;76.30;100098.09;4936209;28;45637;-94
2021/12/24 19:26:34;;;;;;;;;49.50;40.75;;;;;11.29;76.23;100102.56;4936556;28;45380;-89
2021/12/24 19:29:01;;;;;;;;;51.50;41.75;;;;;11.28;76.42;100100.78;4929317;28;47667;-93
2021/12/24 19:31:27;;;;;;;;;42.50;34.75;;;;;11.36;76.40;100101.03;4948241;28;45676;-93
2021/12/24 19:33:52;;;;;;;;;46.00;34.50;;;;;11.38;76.41;100100.25;4937344;28;45580;-92
2021/12/24 19:36:18;;;;;;;;;37.75;33.50;;;;;11.45;76.07;100105.69;4929948;28;45674;-92
2021/12/24 19:38:43;;;;;;;;;37.25;34.50;;;;;11.44;76.28;100103.91;4930266;28;47269;-90
2021/12/24 19:41:09;;;;;;;;;39.25;35.25;;;;;11.42;75.65;100106.47;4947732;28;45635;-90
2021/12/24 19:43:35;;;;;;;;;47.25;40.25;;;;;11.44;76.15;100117.06;4932509;28;45460;-96
2021/12/24 19:46:00;;;;;;;;;40.50;37.25;;;;;11.40;76.51;100101.19;4935582;28;45907;-96
2021/12/24 19:48:26;;;;;;;;;47.50;39.50;;;;;11.42;76.42;100110.81;4922976;28;46153;-96
2021/12/24 19:50:51;;;;;;;;;42.50;37.00;;;;;11.42;76.86;100110.81;4953434;28;45494;-92